sensor_id;sensor_type;location;lat;lon;timestamp;P1;durP1;ratioP1;P2;durP2;ratioP2
23290;SDS011;11814;44.686;10.842;2023-08-30T00:00:41;3.00;;;0.90;;
23290;SDS011;11814;44.686;10.842;2023-08-30T00:03:07;3.45;;;0.90;;
23290;SDS011;11814;44.686;10.842;2023-08-30T00:05:33;5.72;;;0.85;;
23290;SDS011;11814;44.686;10.842;2023-08-30T00:07:59;1.58;;;0.77;;
23290;SDS011;11814;44.686;10.842;2023-08-30T00:10:25;1.55;;;0.90;;
23290;SDS011;11814;44.686;10.842;2023-08-30T00:12:50;5.63;;;1.20;;
23290;SDS011;11814;44.686;10.842;2023-08-30T00:15:16;2.25;;;0.90;;
23290;SDS011;11814;44.686;10.842;2023-08-30T00:17:42;2.25;;;0.95;;
23290;SDS011;11814;44.686;10.842;2023-08-30T00:20:08;1.23;;;0.45;;
23290;SDS011;11814;44.686;10.842;2023-08-30T00:22:34;2.08;;;0.80;;
23290;SDS011;11814;44.686;10.842;2023-08-30T00:25:01;2.78;;;0.73;;
23290;SDS011;11814;44.686;10.842;2023-08-30T00:27:26;2.08;;;0.70;;
23290;SDS011;11814;44.686;10.842;2023-08-30T00:29:52;2.38;;;0.60;;
23290;SDS011;11814;44.686;10.842;2023-08-30T00:32:18;4.07;;;0.85;;
23290;SDS011;11814;44.686;10.842;2023-08-30T00:34:44;3.67;;;0.88;;
23290;SDS011;11814;44.686;10.842;2023-08-30T00:37:09;4.03;;;0.95;;
23290;SDS011;11814;44.686;10.842;2023-08-30T00:39:38;2.75;;;0.70;;
23290;SDS011;11814;44.686;10.842;2023-08-30T00:42:04;2.80;;;0.82;;
23290;SDS011;11814;44.686;10.842;2023-08-30T00:44:32;3.17;;;0.88;;
23290;SDS011;11814;44.686;10.842;2023-08-30T00:47:01;2.85;;;0.75;;
23290;SDS011;11814;44.686;10.842;2023-08-30T00:49:28;4.90;;;0.98;;
23290;SDS011;11814;44.686;10.842;2023-08-30T00:51:57;3.05;;;0.93;;
23290;SDS011;11814;44.686;10.842;2023-08-30T00:54:26;1.98;;;0.73;;
23290;SDS011;11814;44.686;10.842;2023-08-30T00:56:51;1.50;;;0.75;;
23290;SDS011;11814;44.686;10.842;2023-08-30T00:59:17;2.20;;;0.88;;
23290;SDS011;11814;44.686;10.842;2023-08-30T01:01:43;4.90;;;1.13;;
23290;SDS011;11814;44.686;10.842;2023-08-30T01:04:10;1.83;;;0.80;;
23290;SDS011;11814;44.686;10.842;2023-08-30T01:06:36;1.63;;;0.73;;
23290;SDS011;11814;44.686;10.842;2023-08-30T01:09:02;3.13;;;0.70;;
23290;SDS011;11814;44.686;10.842;2023-08-30T01:11:52;1.92;;;0.88;;
23290;SDS011;11814;44.686;10.842;2023-08-30T01:14:29;1.38;;;0.60;;
23290;SDS011;11814;44.686;10.842;2023-08-30T01:17:03;2.50;;;0.90;;
23290;SDS011;11814;44.686;10.842;2023-08-30T01:24:44;1.75;;;0.98;;
23290;SDS011;11814;44.686;10.842;2023-08-30T01:27:17;5.35;;;1.30;;
23290;SDS011;11814;44.686;10.842;2023-08-30T01:29:44;3.05;;;0.90;;
23290;SDS011;11814;44.686;10.842;2023-08-30T01:32:11;2.38;;;0.70;;
23290;SDS011;11814;44.686;10.842;2023-08-30T01:34:38;1.55;;;0.73;;
23290;SDS011;11814;44.686;10.842;2023-08-30T01:37:05;1.73;;;0.63;;
23290;SDS011;11814;44.686;10.842;2023-08-30T01:39:36;1.88;;;0.82;;
23290;SDS011;11814;44.686;10.842;2023-08-30T01:42:02;2.92;;;0.88;;
23290;SDS011;11814;44.686;10.842;2023-08-30T01:44:30;2.60;;;0.95;;
23290;SDS011;11814;44.686;10.842;2023-08-30T01:46:56;1.77;;;0.80;;
23290;SDS011;11814;44.686;10.842;2023-08-30T01:49:23;3.60;;;0.90;;
23290;SDS011;11814;44.686;10.842;2023-08-30T01:51:50;1.70;;;1.17;;
23290;SDS011;11814;44.686;10.842;2023-08-30T01:54:17;2.30;;;1.00;;
23290;SDS011;11814;44.686;10.842;2023-08-30T01:56:44;1.90;;;1.08;;
23290;SDS011;11814;44.686;10.842;2023-08-30T01:59:11;1.60;;;0.95;;
23290;SDS011;11814;44.686;10.842;2023-08-30T02:01:37;3.15;;;1.27;;
23290;SDS011;11814;44.686;10.842;2023-08-30T02:04:03;2.80;;;1.30;;
23290;SDS011;11814;44.686;10.842;2023-08-30T02:06:39;1.52;;;1.30;;
23290;SDS011;11814;44.686;10.842;2023-08-30T02:12:16;4.63;;;1.63;;
23290;SDS011;11814;44.686;10.842;2023-08-30T02:14:44;3.80;;;1.58;;
23290;SDS011;11814;44.686;10.842;2023-08-30T02:17:16;4.15;;;1.70;;
23290;SDS011;11814;44.686;10.842;2023-08-30T02:19:43;4.03;;;1.70;;
23290;SDS011;11814;44.686;10.842;2023-08-30T02:22:09;4.80;;;1.83;;
23290;SDS011;11814;44.686;10.842;2023-08-30T02:24:35;3.78;;;1.95;;
23290;SDS011;11814;44.686;10.842;2023-08-30T02:27:01;3.85;;;2.38;;
23290;SDS011;11814;44.686;10.842;2023-08-30T02:29:27;3.70;;;2.17;;
23290;SDS011;11814;44.686;10.842;2023-08-30T02:31:52;3.42;;;1.90;;
23290;SDS011;11814;44.686;10.842;2023-08-30T02:34:18;6.10;;;2.50;;
23290;SDS011;11814;44.686;10.842;2023-08-30T02:36:44;4.82;;;2.30;;
23290;SDS011;11814;44.686;10.842;2023-08-30T02:39:10;3.85;;;2.25;;
23290;SDS011;11814;44.686;10.842;2023-08-30T02:41:36;3.95;;;2.15;;
23290;SDS011;11814;44.686;10.842;2023-08-30T02:44:04;4.35;;;2.45;;
23290;SDS011;11814;44.686;10.842;2023-08-30T02:46:29;4.50;;;2.38;;
23290;SDS011;11814;44.686;10.842;2023-08-30T02:48:55;4.88;;;2.53;;
23290;SDS011;11814;44.686;10.842;2023-08-30T02:51:21;4.68;;;2.50;;
23290;SDS011;11814;44.686;10.842;2023-08-30T02:53:46;5.18;;;2.40;;
23290;SDS011;11814;44.686;10.842;2023-08-30T02:56:12;5.82;;;2.53;;
23290;SDS011;11814;44.686;10.842;2023-08-30T02:58:37;4.45;;;2.28;;
23290;SDS011;11814;44.686;10.842;2023-08-30T03:01:03;5.95;;;2.60;;
23290;SDS011;11814;44.686;10.842;2023-08-30T03:03:29;6.93;;;2.83;;
23290;SDS011;11814;44.686;10.842;2023-08-30T03:05:54;4.00;;;2.83;;
23290;SDS011;11814;44.686;10.842;2023-08-30T03:08:20;5.43;;;3.03;;
23290;SDS011;11814;44.686;10.842;2023-08-30T03:10:45;3.90;;;2.53;;
23290;SDS011;11814;44.686;10.842;2023-08-30T03:13:11;5.60;;;2.60;;
23290;SDS011;11814;44.686;10.842;2023-08-30T03:15:37;3.28;;;2.80;;
23290;SDS011;11814;44.686;10.842;2023-08-30T03:18:02;4.90;;;2.97;;
23290;SDS011;11814;44.686;10.842;2023-08-30T03:20:28;5.55;;;2.97;;
23290;SDS011;11814;44.686;10.842;2023-08-30T03:22:55;3.88;;;3.03;;
23290;SDS011;11814;44.686;10.842;2023-08-30T03:25:22;5.03;;;3.00;;
23290;SDS011;11814;44.686;10.842;2023-08-30T03:27:47;6.80;;;3.40;;
23290;SDS011;11814;44.686;10.842;2023-08-30T03:30:13;8.18;;;3.90;;
23290;SDS011;11814;44.686;10.842;2023-08-30T03:32:39;4.53;;;3.03;;
23290;SDS011;11814;44.686;10.842;2023-08-30T03:35:05;7.47;;;3.83;;
23290;SDS011;11814;44.686;10.842;2023-08-30T03:37:31;5.60;;;3.45;;
23290;SDS011;11814;44.686;10.842;2023-08-30T03:39:56;4.43;;;3.10;;
23290;SDS011;11814;44.686;10.842;2023-08-30T03:42:22;4.40;;;2.90;;
23290;SDS011;11814;44.686;10.842;2023-08-30T03:44:48;5.50;;;3.67;;
23290;SDS011;11814;44.686;10.842;2023-08-30T03:47:13;3.80;;;2.70;;
23290;SDS011;11814;44.686;10.842;2023-08-30T03:49:39;3.25;;;2.47;;
23290;SDS011;11814;44.686;10.842;2023-08-30T03:52:04;4.70;;;2.50;;
23290;SDS011;11814;44.686;10.842;2023-08-30T03:54:31;4.53;;;2.28;;
23290;SDS011;11814;44.686;10.842;2023-08-30T03:56:57;4.05;;;2.65;;
23290;SDS011;11814;44.686;10.842;2023-08-30T03:59:22;3.72;;;2.45;;
23290;SDS011;11814;44.686;10.842;2023-08-30T04:01:50;5.80;;;2.67;;
23290;SDS011;11814;44.686;10.842;2023-08-30T04:04:16;4.65;;;3.05;;
23290;SDS011;11814;44.686;10.842;2023-08-30T04:06:42;8.05;;;3.25;;
23290;SDS011;11814;44.686;10.842;2023-08-30T04:09:07;5.90;;;3.10;;
23290;SDS011;11814;44.686;10.842;2023-08-30T04:11:33;7.22;;;3.53;;
23290;SDS011;11814;44.686;10.842;2023-08-30T04:13:59;4.22;;;3.20;;
23290;SDS011;11814;44.686;10.842;2023-08-30T04:16:24;6.68;;;3.25;;
23290;SDS011;11814;44.686;10.842;2023-08-30T04:18:50;4.65;;;2.90;;
23290;SDS011;11814;44.686;10.842;2023-08-30T04:21:16;5.55;;;3.42;;
23290;SDS011;11814;44.686;10.842;2023-08-30T04:23:41;6.28;;;3.30;;
23290;SDS011;11814;44.686;10.842;2023-08-30T04:26:07;5.07;;;3.22;;
23290;SDS011;11814;44.686;10.842;2023-08-30T04:28:32;7.95;;;4.07;;
23290;SDS011;11814;44.686;10.842;2023-08-30T04:30:58;4.93;;;3.40;;
23290;SDS011;11814;44.686;10.842;2023-08-30T04:33:25;8.07;;;4.07;;
23290;SDS011;11814;44.686;10.842;2023-08-30T04:35:51;4.72;;;3.80;;
23290;SDS011;11814;44.686;10.842;2023-08-30T04:38:17;8.90;;;4.32;;
23290;SDS011;11814;44.686;10.842;2023-08-30T04:40:43;5.88;;;3.55;;
23290;SDS011;11814;44.686;10.842;2023-08-30T04:43:09;6.05;;;3.90;;
23290;SDS011;11814;44.686;10.842;2023-08-30T04:45:34;7.75;;;3.72;;
23290;SDS011;11814;44.686;10.842;2023-08-30T04:48:00;7.95;;;4.05;;
23290;SDS011;11814;44.686;10.842;2023-08-30T04:50:26;9.52;;;4.20;;
23290;SDS011;11814;44.686;10.842;2023-08-30T04:52:52;8.75;;;4.18;;
23290;SDS011;11814;44.686;10.842;2023-08-30T04:55:17;7.47;;;4.18;;
23290;SDS011;11814;44.686;10.842;2023-08-30T04:57:43;6.03;;;4.13;;
23290;SDS011;11814;44.686;10.842;2023-08-30T05:00:13;6.43;;;4.13;;
23290;SDS011;11814;44.686;10.842;2023-08-30T05:02:39;5.20;;;4.18;;
23290;SDS011;11814;44.686;10.842;2023-08-30T05:05:05;9.63;;;4.47;;
23290;SDS011;11814;44.686;10.842;2023-08-30T05:07:32;7.13;;;3.95;;
23290;SDS011;11814;44.686;10.842;2023-08-30T05:09:58;7.82;;;4.40;;
23290;SDS011;11814;44.686;10.842;2023-08-30T05:12:23;7.93;;;3.88;;
23290;SDS011;11814;44.686;10.842;2023-08-30T05:14:49;7.05;;;4.35;;
23290;SDS011;11814;44.686;10.842;2023-08-30T05:17:14;8.48;;;4.70;;
23290;SDS011;11814;44.686;10.842;2023-08-30T05:19:40;9.35;;;4.15;;
23290;SDS011;11814;44.686;10.842;2023-08-30T05:22:06;9.23;;;4.28;;
23290;SDS011;11814;44.686;10.842;2023-08-30T05:24:32;10.02;;;4.65;;
23290;SDS011;11814;44.686;10.842;2023-08-30T05:26:58;8.73;;;4.10;;
23290;SDS011;11814;44.686;10.842;2023-08-30T05:29:24;8.77;;;4.75;;
23290;SDS011;11814;44.686;10.842;2023-08-30T05:31:50;6.35;;;3.80;;
23290;SDS011;11814;44.686;10.842;2023-08-30T05:34:15;5.43;;;4.00;;
23290;SDS011;11814;44.686;10.842;2023-08-30T05:36:41;8.32;;;3.65;;
23290;SDS011;11814;44.686;10.842;2023-08-30T05:39:07;7.20;;;3.45;;
23290;SDS011;11814;44.686;10.842;2023-08-30T05:41:32;4.68;;;3.13;;
23290;SDS011;11814;44.686;10.842;2023-08-30T05:43:58;8.80;;;3.92;;
23290;SDS011;11814;44.686;10.842;2023-08-30T05:46:24;9.05;;;2.90;;
23290;SDS011;11814;44.686;10.842;2023-08-30T05:48:50;8.13;;;3.35;;
23290;SDS011;11814;44.686;10.842;2023-08-30T05:51:15;8.02;;;3.35;;
23290;SDS011;11814;44.686;10.842;2023-08-30T05:53:41;6.50;;;3.38;;
23290;SDS011;11814;44.686;10.842;2023-08-30T05:56:07;10.50;;;3.90;;
23290;SDS011;11814;44.686;10.842;2023-08-30T05:58:32;6.18;;;3.42;;
23290;SDS011;11814;44.686;10.842;2023-08-30T06:00:58;6.03;;;4.00;;
23290;SDS011;11814;44.686;10.842;2023-08-30T06:03:25;6.75;;;3.95;;
23290;SDS011;11814;44.686;10.842;2023-08-30T06:05:51;8.75;;;3.67;;
23290;SDS011;11814;44.686;10.842;2023-08-30T06:08:18;8.68;;;4.03;;
23290;SDS011;11814;44.686;10.842;2023-08-30T06:10:44;10.77;;;4.50;;
23290;SDS011;11814;44.686;10.842;2023-08-30T06:13:10;10.35;;;3.88;;
23290;SDS011;11814;44.686;10.842;2023-08-30T06:15:36;6.00;;;2.92;;
23290;SDS011;11814;44.686;10.842;2023-08-30T06:18:03;5.47;;;3.17;;
23290;SDS011;11814;44.686;10.842;2023-08-30T06:20:29;7.05;;;3.38;;
23290;SDS011;11814;44.686;10.842;2023-08-30T06:22:57;6.60;;;3.55;;
23290;SDS011;11814;44.686;10.842;2023-08-30T06:25:23;5.70;;;3.70;;
23290;SDS011;11814;44.686;10.842;2023-08-30T06:27:56;7.60;;;3.42;;
23290;SDS011;11814;44.686;10.842;2023-08-30T06:30:24;8.55;;;3.67;;
23290;SDS011;11814;44.686;10.842;2023-08-30T06:32:50;5.38;;;3.10;;
23290;SDS011;11814;44.686;10.842;2023-08-30T06:35:16;8.63;;;3.00;;
23290;SDS011;11814;44.686;10.842;2023-08-30T06:37:41;10.27;;;3.40;;
23290;SDS011;11814;44.686;10.842;2023-08-30T06:40:07;11.45;;;3.38;;
23290;SDS011;11814;44.686;10.842;2023-08-30T06:42:33;8.40;;;3.55;;
23290;SDS011;11814;44.686;10.842;2023-08-30T06:44:59;8.60;;;3.10;;
23290;SDS011;11814;44.686;10.842;2023-08-30T06:47:24;9.98;;;2.85;;
23290;SDS011;11814;44.686;10.842;2023-08-30T06:49:50;7.63;;;2.60;;
23290;SDS011;11814;44.686;10.842;2023-08-30T06:52:16;8.05;;;2.95;;
23290;SDS011;11814;44.686;10.842;2023-08-30T06:54:41;7.25;;;3.05;;
23290;SDS011;11814;44.686;10.842;2023-08-30T06:57:07;8.45;;;3.10;;
23290;SDS011;11814;44.686;10.842;2023-08-30T06:59:34;3.78;;;1.83;;
23290;SDS011;11814;44.686;10.842;2023-08-30T07:01:59;2.85;;;1.70;;
23290;SDS011;11814;44.686;10.842;2023-08-30T07:04:25;5.00;;;1.50;;
23290;SDS011;11814;44.686;10.842;2023-08-30T07:06:51;7.57;;;2.15;;
23290;SDS011;11814;44.686;10.842;2023-08-30T07:09:16;4.57;;;1.92;;
23290;SDS011;11814;44.686;10.842;2023-08-30T07:11:43;5.70;;;1.83;;
23290;SDS011;11814;44.686;10.842;2023-08-30T07:14:09;4.05;;;1.30;;
23290;SDS011;11814;44.686;10.842;2023-08-30T07:16:36;3.63;;;1.10;;
23290;SDS011;11814;44.686;10.842;2023-08-30T07:19:02;6.47;;;1.50;;
23290;SDS011;11814;44.686;10.842;2023-08-30T07:21:27;1.67;;;0.90;;
23290;SDS011;11814;44.686;10.842;2023-08-30T07:23:53;6.50;;;1.10;;
23290;SDS011;11814;44.686;10.842;2023-08-30T07:26:19;3.47;;;1.00;;
23290;SDS011;11814;44.686;10.842;2023-08-30T07:28:45;2.88;;;0.80;;
23290;SDS011;11814;44.686;10.842;2023-08-30T07:31:11;5.45;;;0.80;;
23290;SDS011;11814;44.686;10.842;2023-08-30T07:33:40;3.53;;;0.95;;
23290;SDS011;11814;44.686;10.842;2023-08-30T07:36:06;3.50;;;0.90;;
23290;SDS011;11814;44.686;10.842;2023-08-30T07:38:33;3.85;;;0.68;;
23290;SDS011;11814;44.686;10.842;2023-08-30T07:41:00;2.95;;;0.65;;
23290;SDS011;11814;44.686;10.842;2023-08-30T07:43:26;5.05;;;1.02;;
23290;SDS011;11814;44.686;10.842;2023-08-30T07:45:51;3.58;;;0.93;;
23290;SDS011;11814;44.686;10.842;2023-08-30T07:48:17;2.38;;;0.65;;
23290;SDS011;11814;44.686;10.842;2023-08-30T07:50:43;3.40;;;0.82;;
23290;SDS011;11814;44.686;10.842;2023-08-30T07:53:08;4.93;;;0.70;;
23290;SDS011;11814;44.686;10.842;2023-08-30T07:55:35;2.33;;;0.80;;
23290;SDS011;11814;44.686;10.842;2023-08-30T07:58:01;2.22;;;0.30;;
23290;SDS011;11814;44.686;10.842;2023-08-30T08:00:28;2.50;;;0.20;;
23290;SDS011;11814;44.686;10.842;2023-08-30T08:02:54;1.85;;;0.40;;
23290;SDS011;11814;44.686;10.842;2023-08-30T08:05:20;0.90;;;0.20;;
23290;SDS011;11814;44.686;10.842;2023-08-30T08:07:45;1.75;;;0.20;;
23290;SDS011;11814;44.686;10.842;2023-08-30T08:10:15;0.73;;;0.20;;
23290;SDS011;11814;44.686;10.842;2023-08-30T08:12:41;1.55;;;0.30;;
23290;SDS011;11814;44.686;10.842;2023-08-30T08:15:06;0.75;;;0.20;;
23290;SDS011;11814;44.686;10.842;2023-08-30T08:17:32;3.38;;;0.10;;
23290;SDS011;11814;44.686;10.842;2023-08-30T08:19:57;0.60;;;0.20;;
23290;SDS011;11814;44.686;10.842;2023-08-30T08:22:23;2.25;;;0.30;;
23290;SDS011;11814;44.686;10.842;2023-08-30T08:24:49;0.77;;;0.25;;
23290;SDS011;11814;44.686;10.842;2023-08-30T08:27:16;1.00;;;0.30;;
23290;SDS011;11814;44.686;10.842;2023-08-30T08:29:42;0.40;;;0.20;;
23290;SDS011;11814;44.686;10.842;2023-08-30T08:32:08;2.85;;;0.40;;
23290;SDS011;11814;44.686;10.842;2023-08-30T08:34:33;1.13;;;0.28;;
23290;SDS011;11814;44.686;10.842;2023-08-30T08:36:59;0.50;;;0.13;;
23290;SDS011;11814;44.686;10.842;2023-08-30T08:39:24;1.30;;;0.30;;
23290;SDS011;11814;44.686;10.842;2023-08-30T08:41:50;2.33;;;0.40;;
23290;SDS011;11814;44.686;10.842;2023-08-30T08:44:20;2.30;;;0.20;;
23290;SDS011;11814;44.686;10.842;2023-08-30T08:46:47;1.85;;;0.30;;
23290;SDS011;11814;44.686;10.842;2023-08-30T08:49:14;1.85;;;0.10;;
23290;SDS011;11814;44.686;10.842;2023-08-30T08:51:41;0.35;;;0.10;;
23290;SDS011;11814;44.686;10.842;2023-08-30T08:54:08;2.42;;;0.10;;
23290;SDS011;11814;44.686;10.842;2023-08-30T08:56:34;0.40;;;0.10;;
23290;SDS011;11814;44.686;10.842;2023-08-30T08:59:01;1.45;;;0.25;;
23290;SDS011;11814;44.686;10.842;2023-08-30T09:01:27;3.22;;;0.20;;
23290;SDS011;11814;44.686;10.842;2023-08-30T09:03:53;0.32;;;0.05;;
23290;SDS011;11814;44.686;10.842;2023-08-30T09:06:19;1.27;;;0.00;;
23290;SDS011;11814;44.686;10.842;2023-08-30T09:08:46;0.30;;;0.10;;
23290;SDS011;11814;44.686;10.842;2023-08-30T09:11:12;0.52;;;0.10;;
23290;SDS011;11814;44.686;10.842;2023-08-30T09:13:38;0.95;;;0.13;;
23290;SDS011;11814;44.686;10.842;2023-08-30T09:16:16;0.20;;;0.10;;
23290;SDS011;11814;44.686;10.842;2023-08-30T09:18:42;2.50;;;0.20;;
23290;SDS011;11814;44.686;10.842;2023-08-30T09:21:11;0.70;;;0.10;;
23290;SDS011;11814;44.686;10.842;2023-08-30T09:23:37;0.55;;;0.10;;
23290;SDS011;11814;44.686;10.842;2023-08-30T09:26:03;3.80;;;0.20;;
23290;SDS011;11814;44.686;10.842;2023-08-30T09:28:29;0.70;;;0.15;;
23290;SDS011;11814;44.686;10.842;2023-08-30T09:30:57;1.58;;;0.10;;
23290;SDS011;11814;44.686;10.842;2023-08-30T09:33:32;2.72;;;0.13;;
23290;SDS011;11814;44.686;10.842;2023-08-30T09:35:58;0.98;;;0.10;;
23290;SDS011;11814;44.686;10.842;2023-08-30T09:38:24;2.33;;;0.17;;
23290;SDS011;11814;44.686;10.842;2023-08-30T09:40:50;0.28;;;0.10;;
23290;SDS011;11814;44.686;10.842;2023-08-30T09:43:20;0.65;;;0.20;;
23290;SDS011;11814;44.686;10.842;2023-08-30T09:45:52;0.50;;;0.10;;
23290;SDS011;11814;44.686;10.842;2023-08-30T09:48:39;0.43;;;0.20;;
23290;SDS011;11814;44.686;10.842;2023-08-30T09:51:05;0.30;;;0.10;;
23290;SDS011;11814;44.686;10.842;2023-08-30T09:53:33;1.20;;;0.10;;
23290;SDS011;11814;44.686;10.842;2023-08-30T09:56:05;0.60;;;0.10;;
23290;SDS011;11814;44.686;10.842;2023-08-30T09:58:33;0.38;;;0.15;;
23290;SDS011;11814;44.686;10.842;2023-08-30T10:00:59;0.60;;;0.10;;
23290;SDS011;11814;44.686;10.842;2023-08-30T10:03:28;0.80;;;0.20;;
23290;SDS011;11814;44.686;10.842;2023-08-30T10:05:55;1.08;;;0.25;;
23290;SDS011;11814;44.686;10.842;2023-08-30T10:08:23;1.02;;;0.30;;
23290;SDS011;11814;44.686;10.842;2023-08-30T10:10:56;0.50;;;0.20;;
23290;SDS011;11814;44.686;10.842;2023-08-30T10:13:24;1.10;;;0.30;;
23290;SDS011;11814;44.686;10.842;2023-08-30T10:15:50;0.40;;;0.20;;
23290;SDS011;11814;44.686;10.842;2023-08-30T10:18:23;1.25;;;0.20;;
23290;SDS011;11814;44.686;10.842;2023-08-30T10:20:53;0.95;;;0.20;;
23290;SDS011;11814;44.686;10.842;2023-08-30T10:23:20;1.05;;;0.28;;
23290;SDS011;11814;44.686;10.842;2023-08-30T10:25:47;1.02;;;0.10;;
23290;SDS011;11814;44.686;10.842;2023-08-30T10:28:15;0.38;;;0.10;;
23290;SDS011;11814;44.686;10.842;2023-08-30T10:30:42;1.00;;;0.22;;
23290;SDS011;11814;44.686;10.842;2023-08-30T10:33:12;2.25;;;0.20;;
23290;SDS011;11814;44.686;10.842;2023-08-30T10:35:48;2.97;;;0.20;;
23290;SDS011;11814;44.686;10.842;2023-08-30T10:38:27;0.95;;;0.15;;
23290;SDS011;11814;44.686;10.842;2023-08-30T10:40:54;2.42;;;0.13;;
23290;SDS011;11814;44.686;10.842;2023-08-30T10:43:29;1.50;;;0.20;;
23290;SDS011;11814;44.686;10.842;2023-08-30T10:46:03;0.30;;;0.10;;
23290;SDS011;11814;44.686;10.842;2023-08-30T10:48:38;1.00;;;0.20;;
23290;SDS011;11814;44.686;10.842;2023-08-30T10:51:05;1.17;;;0.15;;
23290;SDS011;11814;44.686;10.842;2023-08-30T10:53:56;0.52;;;0.10;;
23290;SDS011;11814;44.686;10.842;2023-08-30T10:56:29;1.98;;;0.10;;
23290;SDS011;11814;44.686;10.842;2023-08-30T10:58:56;0.60;;;0.17;;
23290;SDS011;11814;44.686;10.842;2023-08-30T11:01:22;2.95;;;0.30;;
23290;SDS011;11814;44.686;10.842;2023-08-30T11:03:49;1.00;;;0.20;;
23290;SDS011;11814;44.686;10.842;2023-08-30T11:06:15;0.30;;;0.10;;
23290;SDS011;11814;44.686;10.842;2023-08-30T11:08:42;0.50;;;0.20;;
23290;SDS011;11814;44.686;10.842;2023-08-30T11:11:10;0.85;;;0.17;;
23290;SDS011;11814;44.686;10.842;2023-08-30T11:13:37;1.05;;;0.10;;
23290;SDS011;11814;44.686;10.842;2023-08-30T11:16:02;1.63;;;0.20;;
23290;SDS011;11814;44.686;10.842;2023-08-30T11:18:38;0.55;;;0.10;;
23290;SDS011;11814;44.686;10.842;2023-08-30T11:21:04;0.60;;;0.10;;
23290;SDS011;11814;44.686;10.842;2023-08-30T11:23:31;0.40;;;0.10;;
23290;SDS011;11814;44.686;10.842;2023-08-30T11:25:57;0.85;;;0.20;;
23290;SDS011;11814;44.686;10.842;2023-08-30T11:28:26;0.80;;;0.10;;
23290;SDS011;11814;44.686;10.842;2023-08-30T11:30:55;0.30;;;0.10;;
23290;SDS011;11814;44.686;10.842;2023-08-30T11:33:21;0.95;;;0.20;;
23290;SDS011;11814;44.686;10.842;2023-08-30T11:35:50;0.50;;;0.17;;
23290;SDS011;11814;44.686;10.842;2023-08-30T11:38:20;0.60;;;0.10;;
23290;SDS011;11814;44.686;10.842;2023-08-30T11:40:48;0.32;;;0.10;;
23290;SDS011;11814;44.686;10.842;2023-08-30T11:43:14;0.20;;;0.10;;
23290;SDS011;11814;44.686;10.842;2023-08-30T11:45:40;0.52;;;0.13;;
23290;SDS011;11814;44.686;10.842;2023-08-30T11:48:06;0.70;;;0.10;;
23290;SDS011;11814;44.686;10.842;2023-08-30T11:50:32;0.50;;;0.10;;
23290;SDS011;11814;44.686;10.842;2023-08-30T11:52:58;0.40;;;0.10;;
23290;SDS011;11814;44.686;10.842;2023-08-30T11:55:25;1.42;;;0.10;;
23290;SDS011;11814;44.686;10.842;2023-08-30T11:57:51;0.75;;;0.22;;
23290;SDS011;11814;44.686;10.842;2023-08-30T12:00:20;1.42;;;0.20;;
23290;SDS011;11814;44.686;10.842;2023-08-30T12:02:46;4.05;;;0.10;;
23290;SDS011;11814;44.686;10.842;2023-08-30T12:05:12;0.90;;;0.10;;
23290;SDS011;11814;44.686;10.842;2023-08-30T12:07:39;0.80;;;0.20;;
23290;SDS011;11814;44.686;10.842;2023-08-30T12:12:31;0.98;;;0.10;;
23290;SDS011;11814;44.686;10.842;2023-08-30T12:14:57;0.55;;;0.10;;
23290;SDS011;11814;44.686;10.842;2023-08-30T12:17:23;0.90;;;0.15;;
23290;SDS011;11814;44.686;10.842;2023-08-30T12:19:58;0.32;;;0.10;;
23290;SDS011;11814;44.686;10.842;2023-08-30T12:22:34;1.85;;;0.20;;
23290;SDS011;11814;44.686;10.842;2023-08-30T12:25:15;0.50;;;0.10;;
23290;SDS011;11814;44.686;10.842;2023-08-30T12:27:45;1.85;;;0.20;;
23290;SDS011;11814;44.686;10.842;2023-08-30T12:30:12;1.58;;;0.20;;
23290;SDS011;11814;44.686;10.842;2023-08-30T12:32:39;0.32;;;0.08;;
23290;SDS011;11814;44.686;10.842;2023-08-30T12:35:05;2.67;;;1.80;;
23290;SDS011;11814;44.686;10.842;2023-08-30T12:37:31;0.30;;;0.10;;
23290;SDS011;11814;44.686;10.842;2023-08-30T12:39:56;1.60;;;0.35;;
23290;SDS011;11814;44.686;10.842;2023-08-30T12:42:22;1.58;;;0.10;;
23290;SDS011;11814;44.686;10.842;2023-08-30T12:44:47;3.17;;;0.10;;
23290;SDS011;11814;44.686;10.842;2023-08-30T12:47:13;0.38;;;0.10;;
23290;SDS011;11814;44.686;10.842;2023-08-30T12:49:39;0.15;;;0.00;;
23290;SDS011;11814;44.686;10.842;2023-08-30T12:52:05;0.25;;;0.05;;
23290;SDS011;11814;44.686;10.842;2023-08-30T12:54:32;2.17;;;0.10;;
23290;SDS011;11814;44.686;10.842;2023-08-30T12:56:57;0.50;;;0.10;;
23290;SDS011;11814;44.686;10.842;2023-08-30T12:59:23;0.82;;;0.10;;
23290;SDS011;11814;44.686;10.842;2023-08-30T13:01:49;0.55;;;0.10;;
23290;SDS011;11814;44.686;10.842;2023-08-30T13:04:15;0.40;;;0.10;;
23290;SDS011;11814;44.686;10.842;2023-08-30T13:06:40;0.93;;;0.00;;
23290;SDS011;11814;44.686;10.842;2023-08-30T13:09:06;2.40;;;0.20;;
23290;SDS011;11814;44.686;10.842;2023-08-30T13:11:32;0.80;;;0.13;;
23290;SDS011;11814;44.686;10.842;2023-08-30T13:13:57;0.43;;;0.10;;
23290;SDS011;11814;44.686;10.842;2023-08-30T13:16:23;2.30;;;0.10;;
23290;SDS011;11814;44.686;10.842;2023-08-30T13:18:49;1.00;;;0.10;;
23290;SDS011;11814;44.686;10.842;2023-08-30T13:21:15;2.05;;;0.10;;
23290;SDS011;11814;44.686;10.842;2023-08-30T13:23:41;0.82;;;0.10;;
23290;SDS011;11814;44.686;10.842;2023-08-30T13:26:06;0.10;;;0.03;;
23290;SDS011;11814;44.686;10.842;2023-08-30T13:28:32;0.95;;;0.10;;
23290;SDS011;11814;44.686;10.842;2023-08-30T13:30:59;0.20;;;0.10;;
23290;SDS011;11814;44.686;10.842;2023-08-30T13:33:25;1.05;;;0.20;;
23290;SDS011;11814;44.686;10.842;2023-08-30T13:35:52;0.20;;;0.00;;
23290;SDS011;11814;44.686;10.842;2023-08-30T13:38:18;0.73;;;0.10;;
23290;SDS011;11814;44.686;10.842;2023-08-30T13:40:44;1.15;;;0.35;;
23290;SDS011;11814;44.686;10.842;2023-08-30T13:43:10;0.63;;;0.13;;
23290;SDS011;11814;44.686;10.842;2023-08-30T13:45:36;0.60;;;0.10;;
23290;SDS011;11814;44.686;10.842;2023-08-30T13:48:02;1.15;;;0.20;;
23290;SDS011;11814;44.686;10.842;2023-08-30T13:50:28;0.43;;;0.10;;
23290;SDS011;11814;44.686;10.842;2023-08-30T13:52:57;1.27;;;0.10;;
23290;SDS011;11814;44.686;10.842;2023-08-30T13:55:23;1.75;;;0.10;;
23290;SDS011;11814;44.686;10.842;2023-08-30T13:57:48;0.52;;;0.20;;
23290;SDS011;11814;44.686;10.842;2023-08-30T14:00:14;0.20;;;0.10;;
23290;SDS011;11814;44.686;10.842;2023-08-30T14:02:40;1.65;;;0.20;;
23290;SDS011;11814;44.686;10.842;2023-08-30T14:05:06;0.60;;;0.20;;
23290;SDS011;11814;44.686;10.842;2023-08-30T14:07:32;1.58;;;0.13;;
23290;SDS011;11814;44.686;10.842;2023-08-30T14:09:58;0.40;;;0.10;;
23290;SDS011;11814;44.686;10.842;2023-08-30T14:12:24;0.85;;;0.10;;
23290;SDS011;11814;44.686;10.842;2023-08-30T14:14:50;0.80;;;0.20;;
23290;SDS011;11814;44.686;10.842;2023-08-30T14:17:18;0.40;;;0.10;;
23290;SDS011;11814;44.686;10.842;2023-08-30T14:19:43;1.35;;;0.08;;
23290;SDS011;11814;44.686;10.842;2023-08-30T14:22:09;0.60;;;0.17;;
23290;SDS011;11814;44.686;10.842;2023-08-30T14:24:34;1.05;;;0.20;;
23290;SDS011;11814;44.686;10.842;2023-08-30T14:27:00;0.55;;;0.10;;
23290;SDS011;11814;44.686;10.842;2023-08-30T14:29:26;0.47;;;0.10;;
23290;SDS011;11814;44.686;10.842;2023-08-30T14:31:52;0.65;;;0.20;;
23290;SDS011;11814;44.686;10.842;2023-08-30T14:34:17;1.00;;;0.20;;
23290;SDS011;11814;44.686;10.842;2023-08-30T14:36:45;1.52;;;0.20;;
23290;SDS011;11814;44.686;10.842;2023-08-30T14:39:11;1.17;;;0.20;;
23290;SDS011;11814;44.686;10.842;2023-08-30T14:41:36;1.00;;;0.25;;